Time;durP1;ratioP1;P1;durP2;ratioP2;P2;SDS_P1;SDS_P2;PMS_P1;PMS_P2;Temp;Humidity;BMP_temperature;BMP_pressure;BME280_temperature;BME280_humidity;BME280_pressure;Samples;Min_cycle;Max_cycle;Signal;HPM_P1;HPM_P2
2021/03/31 00:00:30;;;;;;;13.73;8.23;;;;;;;8.20;55.19;100398.25;5013513;28;20096;-62
2021/03/31 00:02:59;;;;;;;12.90;7.50;;;;;;;8.11;54.49;100397.59;5013433;28;20017;-62
2021/03/31 00:05:25;;;;;;;13.68;8.05;;;;;;;8.26;54.11;100402.78;5011942;28;20092;-62
2021/03/31 00:07:51;;;;;;;13.07;7.65;;;;;;;8.21;54.28;100400.72;5014017;28;20529;-62
2021/03/31 00:10:34;;;;;;;12.48;7.70;;;;;;;8.13;54.21;100398.22;5013148;28;20107;-62
2021/03/31 00:12:59;;;;;;;13.60;7.55;;;;;;;7.88;55.03;100397.03;5013757;28;20022;-62
2021/03/31 00:15:25;;;;;;;14.63;8.23;;;;;;;7.79;55.78;100399.06;5013176;28;20038;-62
2021/03/31 00:17:50;;;;;;;12.68;7.82;;;;;;;7.42;57.51;100390.38;5013517;28;20030;-62
2021/03/31 00:20:16;;;;;;;15.52;8.45;;;;;;;7.43;57.79;100386.69;5013007;28;20025;-62
2021/03/31 00:22:42;;;;;;;13.50;7.45;;;;;;;7.67;56.35;100376.59;5013451;28;20022;-62
2021/03/31 00:25:08;;;;;;;14.07;8.15;;;;;;;7.66;55.66;100377.59;5012875;28;20030;-62
2021/03/31 00:27:33;;;;;;;13.48;7.20;;;;;;;7.59;56.12;100376.72;5012083;28;20065;-62
2021/03/31 00:29:59;;;;;;;14.77;8.25;;;;;;;7.32;57.84;100373.88;5013262;28;20111;-63
2021/03/31 00:32:24;;;;;;;11.48;7.55;;;;;;;7.18;57.72;100377.44;5012848;28;20052;-62
2021/03/31 00:34:50;;;;;;;16.05;8.15;;;;;;;6.91;59.04;100372.72;5013272;28;20476;-62
2021/03/31 00:37:15;;;;;;;14.73;8.05;;;;;;;6.87;59.32;100366.09;5012845;28;20034;-62
2021/03/31 00:39:40;;;;;;;16.42;8.30;;;;;;;6.97;60.72;100360.47;5013314;28;20037;-63
2021/03/31 00:42:06;;;;;;;13.50;7.93;;;;;;;7.05;58.32;100360.31;5012833;28;20030;-62
2021/03/31 00:44:31;;;;;;;14.00;8.38;;;;;;;7.00;58.57;100360.06;5013096;28;20465;-62
2021/03/31 00:46:57;;;;;;;13.18;8.00;;;;;;;7.04;57.64;100365.84;5012654;28;20034;-62
2021/03/31 00:49:22;;;;;;;17.25;8.55;;;;;;;7.23;57.17;100353.69;5012154;28;20041;-62
2021/03/31 00:51:48;;;;;;;17.35;8.20;;;;;;;7.35;57.42;100354.81;5012769;28;20038;-62
2021/03/31 00:54:13;;;;;;;19.65;8.30;;;;;;;7.39;59.81;100357.91;5013149;28;20364;-62
2021/03/31 00:56:39;;;;;;;12.98;7.55;;;;;;;7.16;57.77;100360.81;5011358;28;20096;-62
2021/03/31 00:59:04;;;;;;;14.23;8.45;;;;;;;6.79;59.28;100346.75;4979113;28;20045;-62
2021/03/31 01:01:30;;;;;;;15.68;8.07;;;;;;;6.62;59.56;100347.00;5012441;28;20038;-62
2021/03/31 01:03:55;;;;;;;15.80;7.47;;;;;;;7.26;57.50;100337.31;5012800;28;20037;-62
2021/03/31 01:06:20;;;;;;;14.65;7.72;;;;;;;7.42;57.00;100346.88;5012533;28;20068;-62
2021/03/31 01:08:46;;;;;;;13.05;7.25;;;;;;;7.30;56.99;100333.25;5012807;28;20042;-62
2021/03/31 01:11:13;;;;;;;16.20;8.32;;;;;;;7.12;57.47;100336.38;5011272;28;20042;-62
2021/03/31 01:14:06;;;;;;;12.98;7.88;;;;;;;7.34;56.38;100326.50;5011777;28;20030;-62
2021/03/31 01:16:36;;;;;;;15.70;7.68;;;;;;;7.92;53.85;100323.56;5012469;28;20049;-62
2021/03/31 01:19:22;;;;;;;13.95;7.35;;;;;;;7.64;55.41;100315.59;5011704;28;20112;-62
2021/03/31 01:22:09;;;;;;;15.88;7.35;;;;;;;7.24;57.10;100312.66;5011234;28;20042;-62
2021/03/31 01:25:10;;;;;;;18.23;7.85;;;;;;;7.06;58.60;100306.00;5011447;28;20061;-62
2021/03/31 01:27:47;;;;;;;13.95;7.60;;;;;;;6.80;58.12;100303.94;5011291;28;20121;-62
2021/03/31 01:30:24;;;;;;;16.02;6.82;;;;;;;6.91;57.93;100302.56;5011133;28;20048;-62
2021/03/31 01:33:03;;;;;;;12.88;7.47;;;;;;;6.60;58.86;100303.75;5012505;28;20026;-62
2021/03/31 01:35:28;;;;;;;13.18;8.38;;;;;;;6.46;60.50;100304.59;5012379;28;20080;-62
2021/03/31 01:37:55;;;;;;;16.08;8.50;;;;;;;6.25;62.64;100306.25;4994925;28;20026;-62
2021/03/31 01:40:22;;;;;;;13.43;8.50;;;;;;;6.05;62.93;100307.84;4994581;28;20381;-62
2021/03/31 01:42:59;;;;;;;11.50;7.88;;;;;;;5.89;63.93;100305.34;5012507;28;20025;-62
2021/03/31 01:45:26;;;;;;;14.02;8.25;;;;;;;5.94;63.15;100300.34;5010795;28;20109;-62
2021/03/31 01:47:52;;;;;;;13.82;8.75;;;;;;;6.13;61.64;100297.09;5011482;28;20026;-62
2021/03/31 01:50:17;;;;;;;16.27;8.98;;;;;;;6.28;60.91;100301.56;5011033;28;20072;-62
2021/03/31 01:52:43;;;;;;;16.42;8.57;;;;;;;6.14;61.78;100300.56;5011353;28;20469;-62
2021/03/31 01:55:09;;;;;;;15.63;9.00;;;;;;;5.88;63.38;100295.75;4994522;28;20018;-62
2021/03/31 01:57:34;;;;;;;17.52;9.05;;;;;;;5.96;62.57;100298.31;4994823;28;20539;-62
2021/03/31 02:00:00;;;;;;;18.20;8.95;;;;;;;6.22;60.92;100297.81;4994440;28;20030;-62
2021/03/31 02:02:25;;;;;;;14.20;7.97;;;;;;;6.52;64.67;100282.56;5011984;28;20042;-62
2021/03/31 02:04:50;;;;;;;15.82;8.55;;;;;;;6.50;61.14;100281.91;5011107;28;20034;-62
2021/03/31 02:07:17;;;;;;;14.43;8.27;;;;;;;6.73;59.06;100278.25;5010786;28;20086;-62
2021/03/31 02:09:44;;;;;;;13.35;7.65;;;;;;;6.87;58.79;100280.00;4994569;28;20140;-62
2021/03/31 02:12:11;;;;;;;17.08;7.82;;;;;;;6.91;60.13;100275.91;5012191;28;20065;-62
2021/03/31 02:14:42;;;;;;;12.80;8.13;;;;;;;6.84;58.82;100272.38;5015881;28;20061;-62
2021/03/31 02:17:08;;;;;;;14.50;8.45;;;;;;;6.34;61.28;100275.00;4997953;28;20048;-62
2021/03/31 02:19:34;;;;;;;14.88;8.15;;;;;;;6.01;62.72;100277.28;5014622;28;20018;-62
2021/03/31 02:21:59;;;;;;;13.27;9.15;;;;;;;5.87;63.79;100273.63;5015319;28;20389;-62
2021/03/31 02:24:24;;;;;;;13.20;8.57;;;;;;;5.85;63.35;100270.31;4998188;28;20092;-62
2021/03/31 02:26:50;;;;;;;17.67;8.50;;;;;;;5.65;64.50;100272.75;4997613;28;20030;-62
2021/03/31 02:29:15;;;;;;;17.35;8.70;;;;;;;5.45;66.02;100266.34;5014289;28;20515;-62
2021/03/31 02:31:42;;;;;;;15.15;8.43;;;;;;;5.43;65.33;100265.69;5013882;28;20030;-62
2021/03/31 02:34:08;;;;;;;16.13;8.18;;;;;;;5.55;65.65;100269.53;4998122;28;20031;-62
2021/03/31 02:36:33;;;;;;;12.73;8.93;;;;;;;5.60;66.01;100265.31;5015215;28;20061;-61
2021/03/31 02:39:00;;;;;;;14.63;8.50;;;;;;;5.32;65.60;100257.16;4997907;28;20086;-62
2021/03/31 02:41:25;;;;;;;18.65;9.20;;;;;;;5.60;64.87;100257.31;4997517;28;20492;-62
2021/03/31 02:43:51;;;;;;;14.10;8.10;;;;;;;5.91;63.32;100253.59;5014295;28;20110;-62
2021/03/31 02:46:18;;;;;;;16.85;8.55;;;;;;;5.93;64.04;100250.75;5013775;28;20475;-62
2021/03/31 02:48:43;;;;;;;16.50;8.40;;;;;;;5.90;64.67;100240.50;5014163;28;20073;-62
2021/03/31 02:51:09;;;;;;;16.13;9.05;;;;;;;5.90;63.73;100240.50;4997299;28;20034;-62
2021/03/31 02:53:34;;;;;;;21.02;8.88;;;;;;;6.55;60.03;100236.91;4997661;28;20030;-62
2021/03/31 02:56:03;;;;;;;13.95;8.65;;;;;;;6.21;60.77;100241.06;4996971;28;20038;-61
2021/03/31 02:58:28;;;;;;;12.82;8.10;;;;;;;5.62;64.48;100243.84;5013874;28;20460;-61
2021/03/31 03:00:54;;;;;;;13.27;8.63;;;;;;;5.27;65.68;100246.25;5013287;28;20041;-61
2021/03/31 03:03:19;;;;;;;16.08;8.82;;;;;;;5.13;66.62;100247.06;4997435;28;20030;-61
2021/03/31 03:05:45;;;;;;;13.00;8.63;;;;;;;5.02;67.13;100242.19;5013416;28;20046;-61
2021/03/31 03:08:10;;;;;;;16.67;8.80;;;;;;;5.05;66.91;100247.16;5014910;28;20030;-61
2021/03/31 03:10:36;;;;;;;17.60;9.10;;;;;;;5.05;66.48;100241.84;5013132;28;20057;-61
2021/03/31 03:13:01;;;;;;;15.70;8.50;;;;;;;5.32;64.92;100235.91;5013431;28;20358;-61
2021/03/31 03:15:28;;;;;;;15.05;8.63;;;;;;;5.36;65.79;100239.81;4996785;28;20041;-61
2021/03/31 03:17:53;;;;;;;14.07;9.10;;;;;;;5.31;64.70;100236.88;5014690;28;20025;-61
2021/03/31 03:20:19;;;;;;;14.85;9.35;;;;;;;5.19;67.52;100238.34;5013038;28;20080;-61
2021/03/31 03:22:46;;;;;;;16.20;9.07;;;;;;;4.97;66.12;100243.56;4996462;28;20084;-61
2021/03/31 03:25:12;;;;;;;19.98;9.98;;;;;;;4.96;66.34;100228.63;5012496;28;20030;-61
2021/03/31 03:27:39;;;;;;;13.65;8.48;;;;;;;4.96;66.73;100225.97;5014525;28;20125;-61
2021/03/31 03:30:07;;;;;;;15.52;7.63;;;;;;;5.19;65.31;100223.25;5014003;28;20037;-61
2021/03/31 03:32:33;;;;;;;24.67;8.57;;;;;;;5.38;64.77;100219.19;4996787;28;20053;-60
2021/03/31 03:34:58;;;;;;;14.40;8.02;;;;;;;5.72;63.26;100214.31;4996938;28;20483;-61
2021/03/31 03:37:24;;;;;;;15.43;8.38;;;;;;;5.46;63.56;100212.13;4996419;28;20053;-61
2021/03/31 03:39:49;;;;;;;18.02;8.50;;;;;;;5.27;64.44;100209.03;5013244;28;20385;-61
2021/03/31 03:42:15;;;;;;;16.10;8.50;;;;;;;5.06;65.61;100211.59;4996394;28;20490;-61
2021/03/31 03:44:40;;;;;;;12.88;8.30;;;;;;;4.86;66.85;100208.63;5012836;28;20469;-61
2021/03/31 03:47:05;;;;;;;12.57;7.75;;;;;;;4.62;67.34;100215.84;4996177;28;20037;-62
2021/03/31 03:49:35;;;;;;;13.32;8.82;;;;;;;4.33;69.68;100217.38;5012885;28;20030;-62
2021/03/31 03:52:01;;;;;;;16.73;9.30;;;;;;;4.42;69.51;100219.97;5013774;28;20069;-62
2021/03/31 03:54:26;;;;;;;22.35;11.98;;;;;;;4.50;70.39;100218.09;5012830;28;20065;-62
2021/03/31 03:56:52;;;;;;;21.45;11.32;;;;;;;4.52;69.09;100210.78;5013670;28;20507;-62
2021/03/31 03:59:24;;;;;;;16.67;9.50;;;;;;;4.50;68.43;100207.47;5013912;28;20026;-62
2021/03/31 04:01:50;;;;;;;13.45;9.23;;;;;;;4.90;67.61;100205.44;5013601;28;20030;-61
2021/03/31 04:04:16;;;;;;;15.85;9.20;;;;;;;5.52;64.67;100206.09;5012780;28;20041;-62
2021/03/31 04:06:42;;;;;;;12.82;8.57;;;;;;;5.19;65.31;100201.13;5013181;28;20038;-62
2021/03/31 04:09:07;;;;;;;15.60;8.82;;;;;;;5.05;66.47;100200.13;5013508;28;20132;-61
2021/03/31 04:11:33;;;;;;;17.67;9.30;;;;;;;4.77;66.99;100213.22;5013244;28;20084;-62
2021/03/31 04:13:58;;;;;;;16.73;8.95;;;;;;;4.66;67.87;100209.16;5012473;28;20030;-62
2021/03/31 04:16:24;;;;;;;20.80;10.07;;;;;;;4.49;68.56;100211.13;4995684;28;20104;-62
2021/03/31 04:18:49;;;;;;;14.30;8.73;;;;;;;4.34;68.96;100204.94;5012459;28;20057;-62
2021/03/31 04:21:15;;;;;;;12.23;7.55;;;;;;;4.45;69.46;100199.22;5011756;28;20053;-62
2021/03/31 04:23:40;;;;;;;17.42;9.13;;;;;;;4.44;68.44;100208.19;5011724;28;20432;-63
2021/03/31 04:26:05;;;;;;;17.40;9.43;;;;;;;4.06;70.06;100205.47;5011984;28;20396;-62
2021/03/31 04:28:31;;;;;;;17.85;9.70;;;;;;;3.89;70.68;100207.41;5012736;28;20022;-62
2021/03/31 04:30:57;;;;;;;12.77;9.07;;;;;;;3.73;71.97;100204.03;5012299;28;20042;-62
2021/03/31 04:33:23;;;;;;;14.63;9.48;;;;;;;3.81;71.92;100201.31;4996001;28;20022;-62
2021/03/31 04:35:51;;;;;;;17.60;10.27;;;;;;;4.04;73.24;100212.81;5011644;28;20046;-62
2021/03/31 04:38:16;;;;;;;15.20;10.32;;;;;;;4.16;71.25;100210.53;5012309;28;20362;-61
2021/03/31 04:40:51;;;;;;;17.88;9.88;;;;;;;4.10;70.67;100209.44;5012812;28;20104;-61
2021/03/31 04:43:16;;;;;;;16.67;9.80;;;;;;;4.14;74.13;100212.53;5012165;28;20022;-62
2021/03/31 04:45:41;;;;;;;15.38;9.38;;;;;;;4.28;72.82;100213.63;5012780;28;20092;-62
2021/03/31 04:48:07;;;;;;;16.75;9.18;;;;;;;4.33;70.97;100205.94;5013151;28;20041;-61
2021/03/31 04:50:32;;;;;;;15.13;8.98;;;;;;;4.22;70.11;100211.66;5011524;28;20057;-62
2021/03/31 04:52:58;;;;;;;17.25;9.38;;;;;;;3.99;70.68;100201.84;5013415;28;20361;-62
2021/03/31 04:55:23;;;;;;;15.05;9.63;;;;;;;4.02;72.04;100206.84;5013025;28;20384;-62
2021/03/31 04:57:48;;;;;;;19.10;10.18;;;;;;;4.14;70.99;100212.53;5013445;28;20026;-62
2021/03/31 05:00:14;;;;;;;17.30;9.18;;;;;;;4.27;71.79;100207.50;5012961;28;20034;-62
2021/03/31 05:02:40;;;;;;;15.90;9.98;;;;;;;4.26;70.80;100205.81;5013090;28;20518;-62
2021/03/31 05:05:06;;;;;;;14.52;9.10;;;;;;;4.15;70.13;100208.09;5012495;28;20030;-62
2021/03/31 05:07:31;;;;;;;14.80;8.93;;;;;;;3.68;72.45;100204.53;5013055;28;20084;-62
2021/03/31 05:09:57;;;;;;;16.70;8.77;;;;;;;3.98;71.82;100202.88;5011647;28;20050;-62
2021/03/31 05:12:24;;;;;;;15.43;8.38;;;;;;;4.10;71.08;100206.78;5011640;28;20045;-62
2021/03/31 05:14:50;;;;;;;17.50;9.55;;;;;;;4.04;70.63;100212.81;5013242;28;20026;-61
2021/03/31 05:17:15;;;;;;;14.13;8.82;;;;;;;4.09;71.54;100209.59;5011434;28;20038;-62
2021/03/31 05:19:40;;;;;;;13.63;8.93;;;;;;;4.02;70.70;100219.25;5013052;28;20033;-61
2021/03/31 05:22:06;;;;;;;18.05;9.35;;;;;;;3.97;71.54;100216.31;5012648;28;20368;-61
2021/03/31 05:24:31;;;;;;;15.63;8.52;;;;;;;4.25;70.59;100214.81;5011744;28;20034;-61
2021/03/31 05:26:57;;;;;;;14.90;8.38;;;;;;;4.20;69.88;100211.03;5012618;28;20480;-61
2021/03/31 05:29:22;;;;;;;16.27;8.57;;;;;;;3.93;72.30;100205.22;5011663;28;20022;-61
2021/03/31 05:31:47;;;;;;;16.95;8.98;;;;;;;4.46;72.82;100198.19;5012485;28;20381;-61
2021/03/31 05:34:13;;;;;;;14.48;8.68;;;;;;;4.86;69.00;100208.63;5012926;28;20022;-61
2021/03/31 05:36:38;;;;;;;17.02;7.95;;;;;;;5.03;69.29;100196.00;5011143;28;20049;-61
2021/03/31 05:39:04;;;;;;;21.67;8.27;;;;;;;5.05;67.29;100208.13;5012883;28;20041;-61
2021/03/31 05:41:29;;;;;;;14.30;9.30;;;;;;;5.63;66.35;100200.28;5012613;28;20030;-62
2021/03/31 05:43:55;;;;;;;14.75;9.40;;;;;;;5.83;65.01;100204.00;5011583;28;20444;-62
2021/03/31 05:46:20;;;;;;;13.85;8.40;;;;;;;6.82;61.98;100208.63;5011437;28;20105;-61
2021/03/31 05:48:45;;;;;;;17.17;8.55;;;;;;;8.65;55.32;100208.91;4998903;28;20034;-61
2021/03/31 05:51:11;;;;;;;14.45;8.18;;;;;;;10.33;49.67;100210.81;5014887;28;20492;-62
2021/03/31 05:53:36;;;;;;;13.18;7.47;;;;;;;11.32;46.75;100214.50;4998811;28;20052;-62
2021/03/31 05:56:04;;;;;;;12.00;7.88;;;;;;;11.75;44.93;100212.75;5016156;28;20088;-62
2021/03/31 05:58:30;;;;;;;15.88;8.15;;;;;;;10.29;48.35;100212.31;5015230;28;20082;-61
2021/03/31 06:00:55;;;;;;;13.43;7.60;;;;;;;9.59;51.85;100212.25;5014765;28;20068;-61
2021/03/31 06:03:21;;;;;;;13.82;7.40;;;;;;;12.22;44.91;100207.59;5015839;28;20026;-62
2021/03/31 06:05:46;;;;;;;13.93;7.57;;;;;;;12.61;43.13;100208.88;5015733;28;20413;-62
2021/03/31 06:08:12;;;;;;;30.40;9.05;;;;;;;13.81;39.58;100218.25;5016362;28;20072;-62
2021/03/31 06:10:38;;;;;;;16.73;7.43;;;;;;;14.54;38.06;100217.69;5014446;28;20084;-62
2021/03/31 06:13:05;;;;;;;37.85;9.43;;;;;;;14.33;37.63;100221.91;5014863;28;20041;-62
2021/03/31 06:15:45;;;;;;;20.00;8.48;;;;;;;14.32;37.52;100215.69;5015802;28;20401;-62
2021/03/31 06:18:14;;;;;;;18.13;7.93;;;;;;;15.40;35.22;100225.44;5016073;28;20033;-62
2021/03/31 06:20:57;;;;;;;18.88;8.13;;;;;;;14.34;37.72;100224.34;5014598;28;20066;-62
2021/03/31 06:23:50;;;;;;;19.60;7.40;;;;;;;15.07;36.25;100216.34;5016207;28;20028;-62
2021/03/31 06:26:17;;;;;;;16.08;7.63;;;;;;;14.98;36.31;100225.97;5015510;28;20057;-62
2021/03/31 06:28:43;;;;;;;17.02;7.60;;;;;;;15.30;35.87;100226.97;5014851;28;20034;-63
2021/03/31 06:31:12;;;;;;;20.08;7.85;;;;;;;16.46;33.65;100233.16;5015573;28;20049;-62
2021/03/31 06:33:39;;;;;;;13.68;7.43;;;;;;;15.57;35.36;100231.63;5015705;28;20461;-63
2021/03/31 06:36:05;;;;;;;15.25;7.50;;;;;;;16.91;32.75;100231.13;5015400;28;20400;-61
2021/03/31 06:38:32;;;;;;;19.75;7.43;;;;;;;16.55;33.29;100226.22;5014371;28;20046;-62
2021/03/31 06:41:00;;;;;;;10.75;6.82;;;;;;;17.59;31.65;100225.81;5013967;28;20048;-63
2021/03/31 06:43:41;;;;;;;16.80;7.68;;;;;;;17.05;32.44;100224.19;4998648;28;20068;-63
2021/03/31 06:46:16;;;;;;;34.60;9.55;;;;;;;16.04;34.65;100220.31;5013748;28;20034;-61
2021/03/31 06:48:47;;;;;;;38.50;9.68;;;;;;;16.28;34.30;100220.03;5015638;28;20105;-61
2021/03/31 06:51:23;;;;;;;21.27;8.50;;;;;;;16.29;34.83;100221.66;4998228;28;20080;-62
2021/03/31 06:53:49;;;;;;;17.05;8.13;;;;;;;16.55;33.85;100215.41;5014327;28;20022;-61
2021/03/31 06:56:14;;;;;;;13.07;7.53;;;;;;;16.85;33.33;100224.03;5015017;28;20050;-62
2021/03/31 06:58:39;;;;;;;17.85;7.90;;;;;;;16.28;33.98;100217.31;4997540;28;20033;-62
2021/03/31 07:01:24;;;;;;;16.05;8.13;;;;;;;16.03;35.45;100213.28;4997189;28;20081;-62
2021/03/31 07:03:50;;;;;;;21.05;7.68;;;;;;;15.65;35.89;100216.84;5013911;28;20392;-62
2021/03/31 07:06:18;;;;;;;15.27;8.15;;;;;;;16.59;34.32;100221.09;5014636;28;20046;-61
2021/03/31 07:08:43;;;;;;;14.75;7.75;;;;;;;16.67;34.79;100217.09;5014836;28;20393;-61
2021/03/31 07:11:09;;;;;;;12.88;6.93;;;;;;;16.12;35.63;100211.72;5013547;28;20038;-61
2021/03/31 07:13:34;;;;;;;14.18;7.93;;;;;;;16.32;35.81;100221.94;5013821;28;20033;-61
2021/03/31 07:16:01;;;;;;;15.80;7.45;;;;;;;16.55;35.23;100209.19;5014517;28;20049;-62
2021/03/31 07:18:28;;;;;;;49.70;11.23;;;;;;;17.57;32.88;100214.44;5014827;28;20045;-61
2021/03/31 07:20:54;;;;;;;32.72;9.93;;;;;;;18.33;31.27;100216.56;5013203;28;20041;-62
2021/03/31 07:23:23;;;;;;;24.20;8.93;;;;;;;16.25;35.17;100209.69;5013703;28;20424;-61
2021/03/31 07:25:49;;;;;;;16.45;8.13;;;;;;;17.21;32.68;100200.72;5014255;28;20033;-61
2021/03/31 07:28:18;;;;;;;16.05;10.05;;;;;;;17.73;31.54;100207.19;5014760;28;20481;-61
2021/03/31 07:30:43;;;;;;;18.38;8.52;;;;;;;16.69;33.55;100204.13;5014183;28;20045;-61
2021/03/31 07:33:19;;;;;;;13.40;9.10;;;;;;;17.33;32.07;100197.81;5013323;28;20022;-63
2021/03/31 07:35:44;;;;;;;13.38;7.93;;;;;;;17.02;32.77;100198.44;5013167;28;20040;-62
2021/03/31 07:38:11;;;;;;;13.70;8.45;;;;;;;17.22;32.62;100197.75;5014679;28;20026;-62
2021/03/31 07:40:37;;;;;;;17.95;8.55;;;;;;;16.50;34.10;100191.00;5012928;28;20049;-62
2021/03/31 07:43:16;;;;;;;14.60;8.07;;;;;;;17.34;33.15;100194.81;5013287;28;20030;-62
2021/03/31 07:45:51;;;;;;;15.50;8.27;;;;;;;17.42;33.25;100183.50;5012873;28;20172;-62
2021/03/31 07:48:16;;;;;;;15.43;8.45;;;;;;;17.05;34.49;100186.28;4980780;28;20537;-62
2021/03/31 07:50:42;;;;;;;12.32;8.10;;;;;;;17.27;35.08;100188.81;5013480;28;20076;-62
2021/03/31 07:53:07;;;;;;;12.32;7.25;;;;;;;18.37;32.87;100190.53;5014288;28;20530;-61
2021/03/31 07:55:39;;;;;;;11.80;7.70;;;;;;;17.16;35.56;100184.44;5006619;28;20049;-61
2021/03/31 07:58:14;;;;;;;12.05;7.70;;;;;;;17.17;35.04;100184.19;4994579;28;20080;-61
2021/03/31 08:00:45;;;;;;;14.90;7.55;;;;;;;17.50;33.75;100182.16;4994468;28;20065;-62
2021/03/31 08:03:14;;;;;;;13.38;7.32;;;;;;;17.10;35.44;100186.31;4994561;28;20504;-62
2021/03/31 08:06:05;;;;;;;18.42;7.43;;;;;;;17.53;35.60;100187.06;5000673;28;20034;-62
2021/03/31 08:08:34;;;;;;;12.73;6.80;;;;;;;18.04;34.71;100183.69;5014203;28;20030;-63
2021/03/31 08:11:00;;;;;;;12.27;6.97;;;;;;;17.69;35.84;100182.50;5012110;28;20408;-63
2021/03/31 08:13:29;;;;;;;13.23;7.32;;;;;;;17.96;34.55;100174.19;5014220;28;20038;-63
2021/03/31 08:15:55;;;;;;;13.18;7.47;;;;;;;17.70;34.83;100176.00;5013315;28;20042;-62
2021/03/31 08:18:21;;;;;;;14.85;7.82;;;;;;;17.19;35.95;100170.34;5013926;28;20061;-62
2021/03/31 08:20:48;;;;;;;13.40;7.15;;;;;;;17.11;36.74;100174.38;5013284;28;20046;-62
2021/03/31 08:23:13;;;;;;;14.77;7.68;;;;;;;18.34;33.97;100180.19;5012498;28;20018;-62
2021/03/31 08:25:39;;;;;;;14.88;7.93;;;;;;;18.06;35.17;100176.09;5012244;28;20117;-62
2021/03/31 08:28:08;;;;;;;12.57;7.50;;;;;;;18.56;34.71;100177.22;5013854;28;20420;-62
2021/03/31 08:30:36;;;;;;;14.27;7.93;;;;;;;18.95;33.98;100180.19;5013187;28;20180;-62
2021/03/31 08:33:01;;;;;;;19.10;7.50;;;;;;;19.15;33.40;100184.78;5013760;28;20392;-62
2021/03/31 08:35:27;;;;;;;21.88;8.40;;;;;;;20.16;32.35;100190.00;5013261;28;20091;-62
2021/03/31 08:37:53;;;;;;;16.25;8.02;;;;;;;19.06;33.23;100182.88;5013647;28;20109;-62
2021/03/31 08:40:18;;;;;;;13.88;7.47;;;;;;;19.33;33.17;100179.81;5013393;28;20034;-62
2021/03/31 08:42:53;;;;;;;13.80;7.68;;;;;;;19.87;32.77;100181.78;5013536;28;20476;-62
2021/03/31 08:45:24;;;;;;;23.65;7.82;;;;;;;19.21;33.60;100182.84;5011978;28;20108;-62
2021/03/31 08:47:50;;;;;;;21.20;7.95;;;;;;;18.51;35.15;100169.06;5013987;28;20076;-62
2021/03/31 08:50:23;;;;;;;19.65;8.30;;;;;;;18.85;34.76;100173.97;5011435;28;20034;-62
2021/03/31 08:52:49;;;;;;;19.45;8.57;;;;;;;20.03;32.41;100175.13;5012391;28;20387;-63
2021/03/31 08:55:15;;;;;;;22.70;9.35;;;;;;;18.84;34.88;100164.19;4995496;28;20026;-63
2021/03/31 08:57:40;;;;;;;25.05;9.18;;;;;;;19.50;34.00;100163.19;5013341;28;20473;-62
2021/03/31 09:00:07;;;;;;;16.83;7.97;;;;;;;19.56;33.54;100165.56;5012913;28;20034;-63
2021/03/31 09:02:37;;;;;;;14.60;8.43;;;;;;;19.66;34.17;100163.91;5013232;28;20064;-63
2021/03/31 09:05:03;;;;;;;36.00;10.02;;;;;;;19.95;33.42;100159.41;5011780;28;20026;-63
2021/03/31 09:07:29;;;;;;;24.02;9.35;;;;;;;19.76;33.37;100159.25;5011985;28;20029;-63
2021/03/31 09:09:55;;;;;;;23.48;8.90;;;;;;;20.41;32.78;100156.34;5013120;28;20057;-63
2021/03/31 09:12:21;;;;;;;43.47;10.88;;;;;;;20.98;32.69;100159.38;5012746;28;20113;-62
2021/03/31 09:14:48;;;;;;;25.35;9.60;;;;;;;21.32;31.49;100148.38;5013080;28;20037;-63
2021/03/31 09:17:21;;;;;;;20.35;8.85;;;;;;;21.52;31.10;100147.31;5011347;28;20377;-63
2021/03/31 09:19:49;;;;;;;22.50;8.40;;;;;;;20.75;32.50;100144.63;5011646;28;20540;-63
2021/03/31 09:22:19;;;;;;;20.27;9.25;;;;;;;20.94;32.21;100141.97;5014591;28;20602;-63
2021/03/31 09:24:47;;;;;;;;;;;;;;;21.44;31.30;100133.50;5017301;28;20516;-63
2021/03/31 09:27:18;;;;;;;22.92;9.73;;;;;;;21.19;32.36;100135.44;5016495;28;19918;-63
2021/03/31 09:29:44;;;;;;;19.98;9.52;;;;;;;21.58;30.79;100134.41;5016982;28;20440;-63
2021/03/31 09:32:12;;;;;;;25.70;9.95;;;;;;;21.57;31.50;100138.25;5016371;28;20042;-63
2021/03/31 09:34:38;;;;;;;19.92;9.82;;;;;;;22.21;30.51;100132.44;5017068;28;20061;-64
2021/03/31 09:37:08;;;;;;;20.58;9.50;;;;;;;22.11;31.04;100125.19;5016564;28;20034;-63
2021/03/31 09:39:50;;;;;;;19.15;11.18;;;;;;;21.74;31.00;100133.13;5016632;28;20018;-63
2021/03/31 09:42:29;;;;;;;20.17;10.05;;;;;;;22.37;30.31;100133.81;5015059;28;20042;-63
2021/03/31 09:44:54;;;;;;;23.27;10.80;;;;;;;21.38;31.61;100130.00;5016676;28;20079;-63
2021/03/31 09:47:21;;;;;;;24.95;11.07;;;;;;;22.32;30.35;100125.72;5016067;28;20263;-63
2021/03/31 09:49:53;;;;;;;28.30;11.73;;;;;;;23.32;28.98;100126.03;5016651;28;20026;-63
2021/03/31 09:52:28;;;;;;;20.15;10.25;;;;;;;23.22;28.95;100115.31;5016141;28;20061;-63
2021/03/31 09:55:20;;;;;;;19.42;11.68;;;;;;;22.87;29.63;100120.34;5016488;28;20404;-63
2021/03/31 09:57:47;;;;;;;20.38;13.50;;;;;;;21.59;27.32;100114.25;5014026;28;20061;-63
2021/03/31 10:00:15;;;;;;;24.20;14.07;;;;;;;22.82;25.62;100110.31;5015060;28;20026;-63
2021/03/31 10:02:40;;;;;;;21.88;13.32;;;;;;;23.09;24.27;100110.63;5016066;28;20034;-64
2021/03/31 10:05:11;;;;;;;21.90;13.73;;;;;;;23.43;22.49;100102.00;5014832;28;20028;-63
2021/03/31 10:07:36;;;;;;;23.25;13.02;;;;;;;23.93;22.58;100106.66;5016419;28;20022;-63
2021/03/31 10:10:02;;;;;;;20.40;13.05;;;;;;;23.54;23.48;100099.84;5015733;28;20044;-63
2021/03/31 10:12:29;;;;;;;20.90;12.45;;;;;;;23.95;22.79;100096.19;5014908;28;20137;-63
2021/03/31 10:14:56;;;;;;;18.55;12.02;;;;;;;24.02;23.46;100099.31;5015774;28;20117;-63
2021/03/31 10:17:23;;;;;;;18.70;12.32;;;;;;;24.09;23.18;100086.81;5014616;28;20038;-63
2021/03/31 10:19:48;;;;;;;20.60;11.93;;;;;;;23.44;24.21;100081.75;5014473;28;20476;-63
2021/03/31 10:22:16;;;;;;;18.50;11.65;;;;;;;22.77;24.25;100080.34;5014284;28;20049;-63
2021/03/31 10:24:43;;;;;;;17.50;10.98;;;;;;;24.28;22.68;100075.63;5015924;28;20026;-63
2021/03/31 10:27:10;;;;;;;17.35;11.38;;;;;;;22.94;23.93;100070.72;5015296;28;20057;-63
2021/03/31 10:29:36;;;;;;;17.23;11.20;;;;;;;22.20;25.87;100065.28;5015991;28;20029;-63
2021/03/31 10:32:02;;;;;;;18.73;11.48;;;;;;;23.48;24.13;100058.91;5015533;28;20393;-63
2021/03/31 10:34:41;;;;;;;19.15;11.02;;;;;;;21.84;25.79;100061.22;5016028;28;20488;-63
2021/03/31 10:37:27;;;;;;;18.08;11.40;;;;;;;22.18;26.26;100054.63;5015270;28;20038;-63
2021/03/31 10:50:47;;;;;;;18.58;10.13;;;;;;;25.31;22.92;100061.88;5014985;28;20065;-62
2021/03/31 10:53:13;;;;;;;22.15;10.40;;;;;;;25.87;22.70;100051.91;5015394;28;20381;-62
2021/03/31 10:55:41;;;;;;;18.35;10.45;;;;;;;25.07;23.61;100046.63;5013383;28;20041;-62
2021/03/31 10:58:07;;;;;;;20.13;10.20;;;;;;;25.92;21.83;100048.19;5013985;28;20535;-62
2021/03/31 11:00:34;;;;;;;19.55;10.13;;;;;;;25.16;23.05;100041.16;5014820;28;20046;-64
2021/03/31 11:03:00;;;;;;;23.08;11.05;;;;;;;24.11;23.95;100038.03;5015203;28;20030;-63
2021/03/31 11:05:25;;;;;;;16.67;9.55;;;;;;;25.06;23.36;100045.03;5014591;28;20042;-64
2021/03/31 11:07:50;;;;;;;14.95;9.20;;;;;;;24.68;23.01;100045.53;5015211;28;20468;-64
2021/03/31 11:10:16;;;;;;;16.80;9.18;;;;;;;24.68;23.38;100029.09;5014266;28;20046;-64
2021/03/31 11:12:43;;;;;;;17.30;9.43;;;;;;;25.26;23.13;100026.34;5013921;28;20476;-64
2021/03/31 11:15:10;;;;;;;17.63;10.10;;;;;;;24.98;23.84;100024.66;5014448;28;20026;-64
2021/03/31 11:17:44;;;;;;;15.98;9.77;;;;;;;23.37;25.79;100019.25;5014822;28;20116;-64
2021/03/31 11:25:49;;;;;;;18.27;8.70;;;;;;;24.41;25.19;100008.19;5013518;28;20523;-63
2021/03/31 11:28:14;;;;;;;14.50;7.72;;;;;;;24.15;25.77;100005.31;5014792;28;20042;-63
2021/03/31 11:30:39;;;;;;;16.25;6.18;;;;;;;24.65;23.13;100004.28;5014254;28;20048;-63
2021/03/31 11:33:05;;;;;;;11.65;5.25;;;;;;;23.70;24.12;99999.88;5014638;28;20030;-63
2021/03/31 11:35:30;;;;;;;12.43;5.18;;;;;;;24.15;24.10;99996.31;5013102;28;20037;-63
2021/03/31 11:37:56;;;;;;;9.98;5.78;;;;;;;23.10;25.10;99990.06;5014465;28;20448;-63
2021/03/31 11:40:21;;;;;;;9.00;5.45;;;;;;;22.33;26.17;99982.59;5014023;28;20034;-63